Terminal Aerodrome Forecast
Issued by NWS

Home | Current Version | Previous Version | Text Only | Print | Product List | Glossary On
Versions: 1 2 3 4 5 6 7 8 9 10 11 12 13 14 15 16 17 18
815
FTUS45 KRIW 271136
TAFJAC
TAF
KJAC 271136Z 2712/2812 VRB04KT P6SM FEW009 SCT100
     FM271600 21008KT P6SM SCT060
     FM271900 21010G18KT P6SM VCSH BKN060
     FM280200 20008KT P6SM SCT060 BKN100
     FM281100 VRB04KT P6SM VCFG FEW009 SCT100
      AMD LTD TO CLD VIS AND WIND=

USA.gov is the U.S. government's official web portal to all federal, state and local government web resources and services.